Time;durP1;ratioP1;P1;durP2;ratioP2;P2;SDS_P1;SDS_P2;PMS_P1;PMS_P2;Temp;Humidity;BMP_temperature;BMP_pressure;BME280_temperature;BME280_humidity;BME280_pressure;Samples;Min_cycle;Max_cycle;Signal;HPM_P1;HPM_P2
2021/07/17 00:00:14;;;;;;;0.00;0.00;;;;;;;23.59;44.67;98261.38;5014345;28;20033;-77
2021/07/17 00:02:40;;;;;;;0.00;0.00;;;;;;;23.57;44.93;98263.69;5012653;28;20026;-77
2021/07/17 00:05:10;;;;;;;0.10;0.10;;;;;;;23.50;45.24;98259.75;5013963;28;20037;-77
2021/07/17 00:07:36;;;;;;;0.00;0.00;;;;;;;23.48;45.43;98259.34;5014021;28;20037;-77
2021/07/17 00:10:13;;;;;;;0.03;0.03;;;;;;;23.45;45.57;98257.41;5013786;28;20029;-77
2021/07/17 00:12:41;;;;;;;0.10;0.10;;;;;;;23.44;45.87;98257.78;5013963;28;20026;-77
2021/07/17 00:15:07;;;;;;;0.10;0.10;;;;;;;23.42;45.87;98260.88;5013961;28;20025;-77
2021/07/17 00:17:32;;;;;;;0.10;0.10;;;;;;;23.39;45.99;98261.66;5014026;28;20543;-77
2021/07/17 00:19:58;;;;;;;0.10;0.10;;;;;;;23.40;46.17;98271.41;5012065;28;20036;-77
2021/07/17 00:22:23;;;;;;;0.10;0.10;;;;;;;23.36;46.86;98267.09;5013357;28;20036;-77
2021/07/17 00:24:49;;;;;;;0.00;0.00;;;;;;;23.33;47.54;98265.91;5013524;28;20443;-77
2021/07/17 00:27:14;;;;;;;0.10;0.10;;;;;;;23.28;47.47;98261.59;5013692;28;20057;-77
2021/07/17 00:29:40;;;;;;;0.10;0.10;;;;;;;23.22;47.31;98263.13;5012507;28;20038;-78
2021/07/17 00:32:06;;;;;;;0.00;0.00;;;;;;;23.16;47.83;98259.16;5013153;28;20026;-77
2021/07/17 00:34:31;;;;;;;0.00;0.00;;;;;;;23.08;48.70;98263.00;5013889;28;20045;-78
2021/07/17 00:36:57;;;;;;;0.05;0.05;;;;;;;23.04;48.73;98262.97;5013304;28;20441;-77
2021/07/17 00:39:22;;;;;;;0.10;0.10;;;;;;;22.94;49.35;98261.72;5013174;28;20026;-77
2021/07/17 00:41:48;;;;;;;0.10;0.10;;;;;;;22.88;50.44;98249.59;5013154;28;20104;-77
2021/07/17 00:44:13;;;;;;;0.10;0.10;;;;;;;22.82;52.05;98253.84;5013428;28;20068;-77
2021/07/17 00:46:41;;;;;;;0.13;0.13;;;;;;;22.71;52.71;98242.84;5013373;28;20024;-77
2021/07/17 00:49:08;;;;;;;0.03;0.03;;;;;;;22.67;52.45;98244.78;5013105;28;20117;-77
2021/07/17 00:51:34;;;;;;;0.00;0.00;;;;;;;22.60;53.12;98250.94;5013214;28;20304;-77
2021/07/17 00:54:01;;;;;;;0.10;0.10;;;;;;;22.53;52.09;98254.41;5013290;28;20170;-76
2021/07/17 00:56:28;;;;;;;0.10;0.10;;;;;;;22.48;51.15;98253.94;5012896;28;20018;-76
2021/07/17 00:58:58;;;;;;;0.00;0.00;;;;;;;22.46;49.64;98254.31;5012916;28;20489;-77
2021/07/17 01:01:26;;;;;;;0.03;0.03;;;;;;;22.45;49.39;98249.22;5013046;28;20025;-77
2021/07/17 01:03:51;;;;;;;0.00;0.00;;;;;;;22.44;49.32;98253.13;5012543;28;20030;-77
2021/07/17 01:06:17;;;;;;;0.10;0.10;;;;;;;22.41;48.99;98248.44;5011738;28;20076;-77
2021/07/17 01:08:42;;;;;;;0.10;0.10;;;;;;;22.40;48.61;98244.94;5012897;28;20497;-77
2021/07/17 01:11:08;;;;;;;0.03;0.03;;;;;;;22.41;48.73;98242.97;5012600;28;20489;-76
2021/07/17 01:13:33;;;;;;;0.10;0.10;;;;;;;22.44;48.71;98234.06;5013104;28;20026;-77
2021/07/17 01:15:59;;;;;;;0.10;0.10;;;;;;;22.45;48.84;98236.41;5012536;28;20057;-77
2021/07/17 01:18:25;;;;;;;0.10;0.10;;;;;;;22.42;49.32;98228.97;5012980;28;20527;-76
2021/07/17 01:20:52;;;;;;;0.10;0.10;;;;;;;22.42;49.87;98222.75;5012157;28;20030;-77
2021/07/17 01:23:19;;;;;;;0.03;0.03;;;;;;;22.44;50.40;98226.66;5012670;28;20091;-77
2021/07/17 01:25:45;;;;;;;0.00;0.00;;;;;;;22.44;50.18;98234.06;5012083;28;20799;-76
2021/07/17 01:28:10;;;;;;;0.20;0.20;;;;;;;22.45;50.20;98230.16;5012307;28;20037;-77
2021/07/17 01:30:37;;;;;;;0.10;0.10;;;;;;;22.44;50.40;98229.41;5012445;28;20022;-77
2021/07/17 01:33:04;;;;;;;0.15;0.15;;;;;;;22.46;50.48;98227.09;5011770;28;20490;-76
2021/07/17 01:35:30;;;;;;;0.05;0.05;;;;;;;22.47;50.32;98233.31;5010617;28;20028;-77
2021/07/17 01:37:55;;;;;;;0.05;0.05;;;;;;;22.41;50.65;98229.34;5012023;28;20030;-77
2021/07/17 01:40:21;;;;;;;0.10;0.10;;;;;;;22.38;51.10;98228.94;5012420;28;20129;-77
2021/07/17 01:42:49;;;;;;;0.10;0.10;;;;;;;22.39;51.08;98233.25;5012091;28;20496;-77
2021/07/17 01:45:36;;;;;;;0.10;0.10;;;;;;;22.36;50.96;98238.63;5012299;28;20026;-76
2021/07/17 01:48:03;;;;;;;0.05;0.05;;;;;;;22.28;50.30;98231.56;5012049;28;20022;-77
2021/07/17 01:50:30;;;;;;;0.10;0.10;;;;;;;22.25;50.29;98235.78;5012553;28;20034;-77
2021/07/17 01:52:56;;;;;;;0.03;0.03;;;;;;;22.23;50.47;98236.16;5011872;28;20030;-76
2021/07/17 01:55:22;;;;;;;0.10;0.10;;;;;;;22.23;50.57;98235.41;5011880;28;20037;-76
2021/07/17 01:57:48;;;;;;;0.10;0.10;;;;;;;22.22;50.88;98242.00;5011558;28;20034;-76
2021/07/17 02:00:14;;;;;;;0.10;0.10;;;;;;;22.19;51.43;98240.81;5010723;28;20464;-76
2021/07/17 02:02:41;;;;;;;0.00;0.00;;;;;;;22.19;51.49;98237.28;5010720;28;20061;-76
2021/07/17 02:05:06;;;;;;;0.00;0.00;;;;;;;22.14;51.32;98238.44;5011976;28;20505;-77
2021/07/17 02:07:33;;;;;;;1.80;0.38;;;;;;;22.15;51.10;98239.97;5010598;28;20060;-76
2021/07/17 02:09:59;;;;;;;0.10;0.10;;;;;;;22.11;51.59;98239.16;5011619;28;20030;-77
2021/07/17 02:12:25;;;;;;;0.10;0.10;;;;;;;22.04;51.66;98239.09;5011786;28;20030;-75
2021/07/17 02:14:52;;;;;;;0.10;0.10;;;;;;;22.00;52.09;98238.28;5011558;28;20026;-75
2021/07/17 02:17:18;;;;;;;0.10;0.10;;;;;;;21.96;52.08;98238.22;5011717;28;20025;-75
2021/07/17 02:19:44;;;;;;;0.25;0.25;;;;;;;21.93;52.10;98238.19;5010445;28;20557;-77
2021/07/17 02:22:09;;;;;;;0.10;0.10;;;;;;;21.87;52.95;98238.53;5011539;28;20097;-77
2021/07/17 02:24:35;;;;;;;0.10;0.10;;;;;;;21.87;53.11;98238.53;5010166;28;20046;-76
2021/07/17 02:27:00;;;;;;;0.10;0.10;;;;;;;21.84;53.40;98236.53;5011864;28;20026;-77
2021/07/17 02:29:26;;;;;;;0.10;0.10;;;;;;;21.81;53.78;98237.25;5011564;28;20077;-77
2021/07/17 02:31:51;;;;;;;0.00;0.00;;;;;;;21.81;53.91;98240.00;5011444;28;20567;-76
2021/07/17 02:34:16;;;;;;;0.10;0.10;;;;;;;21.78;54.20;98240.75;5011573;28;20449;-77
2021/07/17 02:36:42;;;;;;;0.10;0.10;;;;;;;21.74;53.85;98242.66;5011620;28;20029;-75
2021/07/17 02:39:09;;;;;;;0.10;0.10;;;;;;;21.71;54.09;98255.03;5010920;28;20025;-76
2021/07/17 02:41:35;;;;;;;0.05;0.05;;;;;;;21.63;54.45;98242.50;5011444;28;20092;-77
2021/07/17 02:44:00;;;;;;;0.10;0.10;;;;;;;21.65;54.80;98239.41;5010941;28;20077;-77
2021/07/17 02:46:26;;;;;;;0.10;0.10;;;;;;;21.63;54.84;98239.00;5010846;28;20460;-76
2021/07/17 02:48:52;;;;;;;0.10;0.10;;;;;;;21.59;54.71;98247.13;5010991;28;20034;-77
2021/07/17 02:51:17;;;;;;;0.10;0.10;;;;;;;21.58;54.59;98248.25;5011618;28;20481;-77
2021/07/17 02:53:43;;;;;;;0.10;0.10;;;;;;;21.59;54.76;98247.13;5011341;28;20022;-76
2021/07/17 02:56:08;;;;;;;0.10;0.10;;;;;;;21.57;54.74;98241.28;5011122;28;20054;-77
2021/07/17 02:58:33;;;;;;;0.10;0.10;;;;;;;21.54;54.83;98250.13;5010065;28;20030;-76
2021/07/17 03:00:59;;;;;;;0.10;0.10;;;;;;;21.54;55.30;98248.19;5011043;28;20026;-76
2021/07/17 03:03:25;;;;;;;0.10;0.10;;;;;;;21.55;55.48;98251.69;5010173;28;20543;-77
2021/07/17 03:05:50;;;;;;;0.10;0.10;;;;;;;21.54;55.38;98241.97;5010996;28;20022;-76
2021/07/17 03:08:21;;;;;;;0.10;0.10;;;;;;;21.59;55.70;98249.81;5011210;28;20105;-77
2021/07/17 03:10:46;;;;;;;0.10;0.10;;;;;;;21.67;55.75;98246.06;5011482;28;20053;-77
2021/07/17 03:13:12;;;;;;;0.10;0.10;;;;;;;21.77;55.68;98252.78;5010862;28;20037;-76
2021/07/17 03:15:37;;;;;;;0.03;0.03;;;;;;;21.89;55.32;98249.81;5011212;28;20409;-77
2021/07/17 03:18:03;;;;;;;0.10;0.10;;;;;;;22.05;55.12;98248.81;5010555;28;20034;-76
2021/07/17 03:20:28;;;;;;;0.10;0.10;;;;;;;22.22;54.64;98256.38;5010797;28;20517;-77
2021/07/17 03:22:54;;;;;;;0.10;0.10;;;;;;;22.43;54.54;98251.56;5010536;28;20029;-76
2021/07/17 03:25:19;;;;;;;0.10;0.10;;;;;;;22.67;54.06;98247.50;5010971;28;20046;-76
2021/07/17 03:27:45;;;;;;;0.10;0.10;;;;;;;22.94;53.51;98253.53;5010769;28;20092;-76
2021/07/17 03:30:12;;;;;;;0.05;0.05;;;;;;;23.26;53.38;98257.69;5011118;28;20022;-77
2021/07/17 03:32:37;;;;;;;0.10;0.10;;;;;;;23.57;53.04;98242.66;5010982;28;20084;-77
2021/07/17 03:35:03;;;;;;;0.10;0.10;;;;;;;23.87;52.48;98238.09;5010763;28;20026;-77
2021/07/17 03:37:29;;;;;;;0.10;0.10;;;;;;;24.21;51.96;98235.84;5010881;28;20459;-77
2021/07/17 03:39:54;;;;;;;0.20;0.20;;;;;;;24.56;51.11;98242.53;5011029;28;20034;-77
2021/07/17 03:42:20;;;;;;;0.10;0.10;;;;;;;24.93;50.74;98229.66;5009689;28;20030;-77
2021/07/17 03:44:45;;;;;;;0.00;0.00;;;;;;;25.39;49.29;98234.28;5010969;28;20481;-75
2021/07/17 03:47:11;;;;;;;0.00;0.00;;;;;;;25.83;48.59;98225.91;5010714;28;20473;-77
2021/07/17 03:49:36;;;;;;;0.10;0.10;;;;;;;26.30;48.03;98231.91;5009577;28;20037;-77
2021/07/17 03:52:03;;;;;;;0.00;0.00;;;;;;;26.69;47.29;98224.59;5009170;28;20034;-77
2021/07/17 03:54:28;;;;;;;0.00;0.00;;;;;;;27.07;46.49;98226.63;5011113;28;20034;-77
2021/07/17 03:56:54;;;;;;;0.10;0.10;;;;;;;27.51;45.37;98224.97;5011373;28;20055;-77
2021/07/17 03:59:19;;;;;;;0.00;0.00;;;;;;;27.90;44.35;98225.69;5014272;28;20480;-76
2021/07/17 04:01:44;;;;;;;0.10;0.10;;;;;;;28.24;43.48;98220.13;5013875;28;20029;-74
2021/07/17 04:04:12;;;;;;;0.00;0.00;;;;;;;28.63;42.52;98217.94;5013761;28;20033;-74
2021/07/17 04:06:38;;;;;;;;;;;;;;;29.06;41.44;98230.22;5013276;28;20091;-75
2021/07/17 04:09:03;;;;;;;0.00;0.00;;;;;;;29.47;40.73;98225.53;5013599;28;20428;-75
2021/07/17 04:11:30;;;;;;;0.00;0.00;;;;;;;29.90;39.59;98223.88;5013912;28;20053;-75
2021/07/17 04:13:55;;;;;;;0.00;0.00;;;;;;;30.34;38.37;98224.47;5013918;28;20029;-75
2021/07/17 04:16:20;;;;;;;0.00;0.00;;;;;;;30.75;37.96;98220.34;5012727;28;20030;-75
2021/07/17 04:18:46;;;;;;;0.00;0.00;;;;;;;31.07;36.96;98221.50;5013979;28;20029;-78
2021/07/17 04:21:12;;;;;;;0.00;0.00;;;;;;;31.41;36.67;98225.72;5012438;28;20493;-77
2021/07/17 04:23:39;;;;;;;0.00;0.00;;;;;;;31.72;35.79;98210.69;5013895;28;20662;-77
2021/07/17 04:26:05;;;;;;;0.00;0.00;;;;;;;32.08;34.76;98209.59;5013450;28;20050;-77
2021/07/17 04:28:30;;;;;;;0.70;0.70;;;;;;;32.34;34.06;98206.84;5013908;28;20038;-77
2021/07/17 04:30:56;;;;;;;0.00;0.00;;;;;;;32.62;33.44;98207.91;5013489;28;20037;-77
2021/07/17 04:33:21;;;;;;;0.00;0.00;;;;;;;32.96;32.95;98200.03;5013438;28;20112;-77
2021/07/17 04:35:47;;;;;;;0.00;0.00;;;;;;;33.29;32.68;98202.44;5013953;28;20049;-77
2021/07/17 04:38:12;;;;;;;0.00;0.00;;;;;;;33.62;31.83;98208.38;5013458;28;20030;-77
2021/07/17 04:40:38;;;;;;;0.10;0.10;;;;;;;33.96;31.27;98208.72;5013558;28;20477;-77
2021/07/17 04:43:04;;;;;;;0.00;0.00;;;;;;;34.23;30.54;98210.03;5013519;28;20397;-77
2021/07/17 04:45:29;;;;;;;0.00;0.00;;;;;;;34.50;29.67;98205.81;5012400;28;20038;-77
2021/07/17 04:47:55;;;;;;;0.00;0.00;;;;;;;34.59;29.18;98203.81;5013683;28;20030;-77
2021/07/17 04:50:20;;;;;;;0.00;0.00;;;;;;;34.80;29.20;98204.16;5013566;28;20021;-77
2021/07/17 04:52:45;;;;;;;0.00;0.00;;;;;;;35.04;29.00;98200.81;5013308;28;20026;-77
2021/07/17 04:55:11;;;;;;;0.03;0.03;;;;;;;35.27;28.27;98204.94;5013190;28;20022;-77
2021/07/17 04:57:37;;;;;;;0.05;0.05;;;;;;;35.11;28.30;98206.06;5013248;28;20025;-77
2021/07/17 05:00:04;;;;;;;0.00;0.00;;;;;;;35.18;27.38;98208.50;5013033;28;20030;-77
2021/07/17 05:02:30;;;;;;;0.10;0.10;;;;;;;35.33;27.33;98202.28;5013151;28;20030;-77
2021/07/17 05:04:55;;;;;;;0.00;0.00;;;;;;;35.47;27.46;98200.91;5012804;28;20496;-77
2021/07/17 05:07:20;;;;;;;0.00;0.00;;;;;;;35.69;26.73;98204.28;5013015;28;20105;-76
2021/07/17 05:09:46;;;;;;;0.00;0.00;;;;;;;35.83;26.20;98193.72;5012728;28;20036;-78
2021/07/17 05:12:11;;;;;;;0.00;0.00;;;;;;;35.78;26.43;98186.00;5012793;28;20117;-78
2021/07/17 05:14:37;;;;;;;0.00;0.00;;;;;;;35.81;26.08;98196.19;5012960;28;20108;-77
2021/07/17 05:17:02;;;;;;;0.10;0.10;;;;;;;35.93;26.24;98200.03;5012788;28;20029;-77
2021/07/17 05:19:28;;;;;;;0.10;0.10;;;;;;;36.11;25.84;98197.16;5012835;28;20026;-77
2021/07/17 05:21:53;;;;;;;0.00;0.00;;;;;;;35.98;25.93;98194.59;5012383;28;20400;-77
2021/07/17 05:24:19;;;;;;;0.10;0.10;;;;;;;35.92;26.09;98187.38;5012717;28;20429;-76
2021/07/17 05:26:44;;;;;;;0.00;0.00;;;;;;;36.11;26.15;98196.38;5011496;28;20083;-76
2021/07/17 05:29:10;;;;;;;0.00;0.00;;;;;;;36.03;26.60;98190.41;5012611;28;20034;-77
2021/07/17 05:31:35;;;;;;;0.00;0.00;;;;;;;36.09;25.98;98193.31;5012816;28;20018;-77
2021/07/17 05:34:01;;;;;;;0.00;0.00;;;;;;;36.31;25.75;98202.16;5012326;28;20474;-77
2021/07/17 05:36:26;;;;;;;0.00;0.00;;;;;;;36.46;25.91;98199.47;5012227;28;20018;-77
2021/07/17 05:38:51;;;;;;;0.10;0.10;;;;;;;36.73;25.69;98202.53;5012411;28;20378;-77
2021/07/17 05:41:17;;;;;;;0.00;0.00;;;;;;;37.01;25.14;98203.09;5012188;28;20509;-76
2021/07/17 05:43:42;;;;;;;0.00;0.00;;;;;;;37.13;24.84;98204.06;5012884;28;20113;-76
2021/07/17 05:46:08;;;;;;;0.08;0.08;;;;;;;37.21;24.74;98193.31;5011948;28;20413;-76
2021/07/17 05:48:33;;;;;;;0.10;0.10;;;;;;;37.23;25.13;98194.41;5011186;28;20030;-76
2021/07/17 05:50:58;;;;;;;0.10;0.10;;;;;;;37.29;24.67;98198.03;5012457;28;20076;-76
2021/07/17 05:53:24;;;;;;;0.00;0.00;;;;;;;37.12;25.05;98194.16;5012346;28;20125;-76
2021/07/17 05:55:49;;;;;;;0.20;0.20;;;;;;;37.08;25.38;98193.59;5011926;28;20100;-77
2021/07/17 05:58:14;;;;;;;0.00;0.00;;;;;;;37.21;24.62;98190.53;5011969;28;20037;-76
2021/07/17 06:00:42;;;;;;;0.00;0.00;;;;;;;36.95;25.03;98186.28;5011844;28;20026;-76
2021/07/17 06:03:09;;;;;;;0.10;0.10;;;;;;;36.72;25.11;98185.06;5012021;28;20030;-76
2021/07/17 06:05:34;;;;;;;0.40;0.30;;;;;;;36.51;25.51;98186.88;5012105;28;20465;-76
2021/07/17 06:08:00;;;;;;;0.10;0.10;;;;;;;36.26;25.52;98188.88;5011697;28;20113;-76
2021/07/17 06:10:25;;;;;;;0.20;0.20;;;;;;;36.02;26.34;98186.06;5012128;28;20032;-76
2021/07/17 06:12:51;;;;;;;0.10;0.10;;;;;;;36.11;26.19;98194.38;5011972;28;20032;-76
2021/07/17 06:15:16;;;;;;;0.17;0.17;;;;;;;36.07;25.90;98193.75;5011656;28;20033;-77
2021/07/17 06:17:42;;;;;;;0.00;0.00;;;;;;;36.01;26.62;98192.88;5011711;28;20497;-77
2021/07/17 06:20:08;;;;;;;0.20;0.20;;;;;;;36.10;25.95;98189.28;5010927;28;20026;-77
2021/07/17 06:22:33;;;;;;;0.00;0.00;;;;;;;36.11;26.00;98193.59;5011813;28;20026;-77
2021/07/17 06:24:59;;;;;;;0.08;0.08;;;;;;;36.03;25.89;98180.03;5011064;28;20046;-77
2021/07/17 06:27:24;;;;;;;0.03;0.03;;;;;;;35.98;26.02;98182.69;5011674;28;20021;-77
2021/07/17 06:29:49;;;;;;;0.25;0.25;;;;;;;35.89;25.28;98178.72;5011311;28;20049;-77
2021/07/17 06:32:18;;;;;;;0.10;0.10;;;;;;;35.77;25.34;98176.09;5011378;28;20450;-77
2021/07/17 06:34:44;;;;;;;0.10;0.10;;;;;;;35.71;25.62;98170.41;5011478;28;20456;-77
2021/07/17 06:37:10;;;;;;;0.03;0.03;;;;;;;35.53;25.48;98168.47;5010900;28;20030;-77
2021/07/17 06:39:35;;;;;;;1.88;0.17;;;;;;;35.45;25.35;98173.59;5011658;28;20037;-77
2021/07/17 06:42:01;;;;;;;0.10;0.10;;;;;;;35.46;25.81;98168.78;5011431;28;20030;-77
2021/07/17 06:44:26;;;;;;;0.00;0.00;;;;;;;35.32;25.84;98170.22;5011327;28;20029;-77
2021/07/17 06:46:51;;;;;;;0.00;0.00;;;;;;;35.10;25.37;98171.16;5011271;28;20026;-77
2021/07/17 06:49:17;;;;;;;0.05;0.05;;;;;;;34.87;25.90;98170.56;5010999;28;20102;-77
2021/07/17 06:51:42;;;;;;;0.13;0.13;;;;;;;34.68;26.01;98169.75;5009617;28;20052;-77
2021/07/17 06:54:08;;;;;;;0.00;0.00;;;;;;;34.25;25.80;98169.53;5011334;28;20021;-77
2021/07/17 06:56:33;;;;;;;0.75;0.45;;;;;;;33.97;26.41;98171.44;5011234;28;20532;-77
2021/07/17 06:58:58;;;;;;;0.32;0.32;;;;;;;33.63;26.33;98165.59;5011364;28;20104;-78
2021/07/17 07:01:24;;;;;;;0.00;0.00;;;;;;;33.39;26.12;98167.31;5010880;28;20056;-77
2021/07/17 07:03:49;;;;;;;0.10;0.10;;;;;;;33.25;26.66;98163.81;5011244;28;20097;-77
2021/07/17 07:06:15;;;;;;;0.00;0.00;;;;;;;33.22;27.12;98161.94;5011115;28;20383;-76
2021/07/17 07:08:40;;;;;;;0.10;0.10;;;;;;;33.11;26.86;98156.78;5011213;28;20080;-77
2021/07/17 07:11:06;;;;;;;0.00;0.00;;;;;;;32.97;27.39;98160.84;5010838;28;20077;-77
2021/07/17 07:13:31;;;;;;;0.22;0.22;;;;;;;32.98;27.30;98154.09;5011142;28;20104;-77
2021/07/17 07:15:57;;;;;;;0.20;0.20;;;;;;;32.98;26.71;98153.31;5009577;28;20030;-77
2021/07/17 07:18:22;;;;;;;0.30;0.30;;;;;;;32.90;26.89;98152.78;5010971;28;20022;-77
2021/07/17 07:20:48;;;;;;;0.13;0.13;;;;;;;32.82;27.32;98157.78;5010914;28;20061;-77
2021/07/17 07:23:15;;;;;;;0.00;0.00;;;;;;;32.79;27.67;98149.63;5010879;28;20054;-77
2021/07/17 07:25:41;;;;;;;0.00;0.00;;;;;;;32.80;27.67;98149.19;5010823;28;20053;-77
2021/07/17 07:28:06;;;;;;;0.00;0.00;;;;;;;32.84;26.94;98149.06;5009304;28;20088;-77
2021/07/17 07:30:32;;;;;;;0.00;0.00;;;;;;;32.75;27.38;98149.69;5011071;28;20033;-77
2021/07/17 07:32:58;;;;;;;0.00;0.00;;;;;;;32.73;27.56;98150.16;5014600;28;20105;-77
2021/07/17 07:35:25;;;;;;;0.00;0.00;;;;;;;32.71;27.20;98141.56;5014557;28;20037;-77
2021/07/17 07:37:52;;;;;;;0.00;0.00;;;;;;;32.72;27.51;98142.31;5013098;28;20072;-77
2021/07/17 07:40:19;;;;;;;0.10;0.10;;;;;;;32.60;27.58;98141.13;5014638;28;20473;-77
2021/07/17 07:42:45;;;;;;;0.10;0.10;;;;;;;32.52;27.79;98151.69;5014601;28;20025;-77
2021/07/17 07:45:11;;;;;;;0.30;0.30;;;;;;;32.43;28.28;98142.53;5014166;28;20026;-77
2021/07/17 07:47:36;;;;;;;0.10;0.10;;;;;;;32.31;28.39;98135.78;5013214;28;20025;-77
2021/07/17 07:50:03;;;;;;;0.20;0.20;;;;;;;32.19;28.72;98140.88;5014318;28;20421;-78
2021/07/17 07:52:29;;;;;;;0.00;0.00;;;;;;;32.14;28.67;98137.91;5014572;28;20515;-77
2021/07/17 07:54:54;;;;;;;0.10;0.10;;;;;;;32.16;28.55;98138.22;5014692;28;20101;-77
2021/07/17 07:57:20;;;;;;;0.00;0.00;;;;;;;32.19;28.72;98129.03;5014082;28;20489;-78
2021/07/17 07:59:45;;;;;;;0.00;0.00;;;;;;;32.08;29.04;98132.94;5014274;28;20393;-77
2021/07/17 08:02:11;;;;;;;0.35;0.35;;;;;;;32.13;28.98;98139.09;5014009;28;20117;-77
2021/07/17 08:04:36;;;;;;;0.00;0.00;;;;;;;32.07;28.87;98128.63;5014292;28;20033;-78
2021/07/17 08:07:03;;;;;;;0.10;0.10;;;;;;;32.04;29.50;98132.28;5013920;28;20026;-78
2021/07/17 08:09:28;;;;;;;0.00;0.00;;;;;;;32.10;29.49;98121.41;5014015;28;20037;-77
2021/07/17 08:11:53;;;;;;;0.10;0.10;;;;;;;31.93;28.98;98120.78;5013851;28;20077;-77
2021/07/17 08:14:19;;;;;;;0.40;0.40;;;;;;;31.85;29.55;98111.16;5013743;28;20611;-77
2021/07/17 08:16:45;;;;;;;0.30;0.30;;;;;;;31.79;29.82;98102.66;5014217;28;20033;-77
2021/07/17 08:19:10;;;;;;;0.20;0.20;;;;;;;31.77;29.81;98110.63;5014029;28;20018;-77
2021/07/17 08:21:36;;;;;;;0.10;0.10;;;;;;;31.74;29.78;98106.00;5013983;28;20536;-77
2021/07/17 08:24:03;;;;;;;0.00;0.00;;;;;;;31.76;29.59;98104.31;5014019;28;20068;-77
2021/07/17 08:26:29;;;;;;;0.00;0.00;;;;;;;31.73;29.95;98105.19;5013958;28;20033;-77
2021/07/17 08:28:55;;;;;;;0.28;0.28;;;;;;;31.81;29.49;98102.22;5012497;28;20080;-77
2021/07/17 08:31:20;;;;;;;0.10;0.10;;;;;;;31.82;30.06;98103.75;5013219;28;20033;-77
2021/07/17 08:33:45;;;;;;;0.00;0.00;;;;;;;31.85;30.11;98106.41;5013855;28;20029;-78
2021/07/17 08:36:11;;;;;;;0.10;0.10;;;;;;;31.81;29.34;98105.78;5013424;28;20444;-77
2021/07/17 08:38:37;;;;;;;0.00;0.00;;;;;;;31.72;28.96;98094.59;5012374;28;20034;-77
2021/07/17 08:41:08;;;;;;;0.00;0.00;;;;;;;31.67;29.58;98106.22;5013547;28;20026;-76
2021/07/17 08:43:34;;;;;;;0.05;0.05;;;;;;;31.62;29.88;98099.97;5012888;28;20403;-78
2021/07/17 08:46:00;;;;;;;0.43;0.15;;;;;;;31.61;30.21;98103.94;5013246;28;20060;-77
2021/07/17 08:48:26;;;;;;;0.00;0.00;;;;;;;31.63;30.05;98106.28;5012949;28;20034;-77
2021/07/17 08:50:52;;;;;;;0.00;0.00;;;;;;;31.62;30.53;98104.75;5013642;28;20052;-77
2021/07/17 08:53:18;;;;;;;0.10;0.10;;;;;;;31.51;29.56;98105.06;5012928;28;20029;-77
2021/07/17 08:55:43;;;;;;;0.25;0.25;;;;;;;31.45;29.99;98107.59;5013389;28;20022;-76
2021/07/17 08:58:09;;;;;;;0.08;0.08;;;;;;;31.46;30.50;98108.38;5013274;28;20036;-77
2021/07/17 09:00:40;;;;;;;0.30;0.30;;;;;;;31.45;29.97;98101.31;5012913;28;20544;-78
2021/07/17 09:03:11;;;;;;;0.10;0.10;;;;;;;31.42;29.95;98097.44;5012573;28;20160;-76
2021/07/17 09:05:42;;;;;;;0.00;0.00;;;;;;;31.38;29.74;98101.53;5013225;28;20495;-77
2021/07/17 09:08:09;;;;;;;1.75;1.30;;;;;;;31.36;29.53;98099.19;5011509;28;20421;-78
2021/07/17 09:10:36;;;;;;;0.08;0.08;;;;;;;31.43;30.16;98103.72;5012711;28;20061;-77
2021/07/17 09:13:23;;;;;;;0.10;0.10;;;;;;;31.43;29.93;98096.22;5012931;28;20033;-77
2021/07/17 09:15:49;;;;;;;0.10;0.10;;;;;;;31.40;29.26;98107.38;5013279;28;20029;-77
2021/07/17 09:18:35;;;;;;;1.17;0.10;;;;;;;31.37;30.25;98095.22;5012994;28;20044;-78
2021/07/17 09:21:04;;;;;;;0.30;0.30;;;;;;;31.35;30.72;98105.94;5012549;28;20501;-76
2021/07/17 09:23:35;;;;;;;0.22;0.22;;;;;;;31.36;30.24;98093.69;5012716;28;20026;-77
2021/07/17 09:26:18;;;;;;;0.22;0.22;;;;;;;31.37;30.61;98100.75;5012907;28;20104;-76
2021/07/17 09:28:55;;;;;;;0.10;0.10;;;;;;;31.35;30.73;98094.88;5011596;28;20022;-75
2021/07/17 09:31:21;;;;;;;0.13;0.13;;;;;;;31.32;30.43;98087.47;5012643;28;20037;-76
2021/07/17 09:34:00;;;;;;;0.98;0.65;;;;;;;31.37;30.88;98102.72;5012647;28;20034;-75
2021/07/17 09:36:25;;;;;;;0.30;0.30;;;;;;;31.30;30.56;98096.19;5012809;28;20111;-77
2021/07/17 09:38:51;;;;;;;0.10;0.10;;;;;;;31.29;30.18;98099.41;5012483;28;20112;-77
2021/07/17 09:41:21;;;;;;;1.02;1.00;;;;;;;31.21;30.59;98084.25;5011915;28;20030;-77
2021/07/17 09:43:59;;;;;;;0.17;0.17;;;;;;;31.25;31.69;98074.66;5012483;28;20034;-77
2021/07/17 09:46:26;;;;;;;0.20;0.20;;;;;;;31.39;31.83;98080.97;5012339;28;20111;-77
2021/07/17 09:48:55;;;;;;;0.00;0.00;;;;;;;31.50;30.86;98072.34;5012296;28;20034;-76
2021/07/17 09:51:24;;;;;;;0.03;0.03;;;;;;;31.54;31.14;98070.25;5012277;28;20033;-77
2021/07/17 09:53:55;;;;;;;0.38;0.17;;;;;;;31.60;30.29;98074.00;5012461;28;20037;-78
2021/07/17 09:56:25;;;;;;;0.10;0.10;;;;;;;31.67;30.79;98064.75;5011309;28;20109;-77
2021/07/17 09:58:53;;;;;;;0.10;0.10;;;;;;;31.75;30.60;98064.09;5012225;28;20033;-78
2021/07/17 10:01:43;;;;;;;0.00;0.00;;;;;;;31.87;30.85;98064.50;5011865;28;20030;-78
2021/07/17 10:04:13;;;;;;;0.88;0.30;;;;;;;31.80;30.05;98059.19;5008530;28;20073;-78
2021/07/17 10:06:59;;;;;;;0.10;0.10;;;;;;;31.82;29.81;98054.78;5012375;28;20032;-77
2021/07/17 10:09:35;;;;;;;0.10;0.10;;;;;;;31.67;28.59;98062.75;5011917;28;20448;-76
2021/07/17 10:12:07;;;;;;;0.10;0.10;;;;;;;31.62;26.67;98072.34;5012006;28;20087;-74
2021/07/17 10:14:35;;;;;;;0.05;0.05;;;;;;;31.51;27.71;98077.44;5011836;28;20046;-75
2021/07/17 10:17:13;;;;;;;0.70;0.47;;;;;;;31.42;28.73;98056.00;5011909;28;20026;-75
2021/07/17 10:19:40;;;;;;;0.38;0.38;;;;;;;31.41;29.05;98056.44;5011873;28;20374;-76
2021/07/17 10:22:06;;;;;;;0.40;0.38;;;;;;;31.42;29.48;98069.81;5010703;28;20049;-75
2021/07/17 10:24:33;;;;;;;0.10;0.10;;;;;;;31.50;29.37;98066.84;5011523;28;20050;-75
2021/07/17 10:26:59;;;;;;;0.55;0.55;;;;;;;31.44;29.07;98052.78;5012036;28;20493;-76
2021/07/17 10:29:26;;;;;;;0.20;0.13;;;;;;;31.51;29.44;98060.84;5010236;28;20041;-78
2021/07/17 10:31:53;;;;;;;0.03;0.03;;;;;;;31.51;29.82;98054.56;5012012;28;20022;-77
2021/07/17 10:34:20;;;;;;;0.40;0.40;;;;;;;31.49;29.94;98052.22;5011433;28;20029;-77
2021/07/17 10:37:02;;;;;;;0.20;0.20;;;;;;;31.55;29.78;98046.94;5011755;28;20061;-76
2021/07/17 10:39:31;;;;;;;0.15;0.15;;;;;;;31.56;30.00;98057.53;5011544;28;20113;-76
2021/07/17 10:41:58;;;;;;;0.10;0.10;;;;;;;31.61;30.87;98042.38;5011308;28;20025;-77
2021/07/17 10:44:40;;;;;;;0.38;0.38;;;;;;;31.65;30.86;98039.53;5011583;28;20054;-76
2021/07/17 10:47:07;;;;;;;0.55;0.28;;;;;;;31.70;31.04;98027.94;5011722;28;20109;-76
2021/07/17 10:49:41;;;;;;;0.00;0.00;;;;;;;31.77;31.46;98044.28;5011268;28;20037;-77
2021/07/17 10:52:07;;;;;;;0.40;0.30;;;;;;;31.78;31.56;98032.78;5011547;28;20038;-77
2021/07/17 10:54:33;;;;;;;0.15;0.15;;;;;;;31.80;31.62;98017.75;5011766;28;20029;-76
2021/07/17 10:57:00;;;;;;;0.10;0.10;;;;;;;31.88;31.84;98014.28;5011532;28;20034;-76
2021/07/17 10:59:25;;;;;;;1.00;0.70;;;;;;;32.00;31.93;98006.41;5011163;28;20497;-76
2021/07/17 11:02:03;;;;;;;0.13;0.13;;;;;;;32.08;31.09;98010.50;5011102;28;20069;-76
2021/07/17 11:04:31;;;;;;;0.30;0.30;;;;;;;32.07;31.06;98006.19;5011404;28;20084;-76
2021/07/17 11:07:16;;;;;;;0.17;0.17;;;;;;;32.18;31.35;98003.81;5013599;28;20045;-76
2021/07/17 11:09:57;;;;;;;0.40;0.40;;;;;;;32.25;29.26;98003.59;5014947;28;20105;-77
2021/07/17 11:12:28;;;;;;;0.10;0.10;;;;;;;32.31;30.89;98003.00;5014864;28;20421;-76
2021/07/17 11:14:55;;;;;;;0.10;0.10;;;;;;;32.26;30.50;98007.13;5015447;28;20033;-77
2021/07/17 11:17:53;;;;;;;0.20;0.20;;;;;;;32.29;30.37;98008.22;5014879;28;20042;-78
2021/07/17 11:20:27;;;;;;;0.35;0.28;;;;;;;32.22;30.80;98009.25;5014766;28;20018;-77
2021/07/17 11:23:01;;;;;;;0.10;0.10;;;;;;;32.21;30.22;98004.94;5014885;28;20053;-78
2021/07/17 11:25:27;;;;;;;0.00;0.00;;;;;;;32.22;29.90;98004.47;5015073;28;20058;-75
2021/07/17 11:27:52;;;;;;;0.03;0.03;;;;;;;32.20;29.31;98004.16;5014664;28;20026;-75
2021/07/17 11:30:20;;;;;;;0.10;0.10;;;;;;;32.18;29.33;97989.22;5014967;28;20112;-76
2021/07/17 11:33:04;;;;;;;0.98;0.50;;;;;;;32.25;29.05;98008.34;5014484;28;20072;-76